BLKT80 YWLM-YWLM
Flight info
| Callsign | BLKT80 |
|---|---|
| Flight time | 0h 7m |
| Altitude | 12500 |
| Route | WLM DCT WLM088025 DCT WLM125025 DCT WLM |
| Aircraft | P8/M-SADE2E3FGHIRWZ/LB1 |
Departure
| Time | 2026-04-30 08:41 |
|---|---|
| Airport | Newcastle Airport (YWLM) |
Arrival
| Time | 2026-04-30 08:48 |
|---|---|
| Airport | Newcastle Airport (YWLM) |
| Time | Latitude | Longitude | Altitude | Speed | Heading |
|---|---|---|---|---|---|
| 2026-04-30 07:48 | -33.08500 | 153.08682 | 2028 ft | 209 kts | 126° |
| 2026-04-30 07:48 | -33.09414 | 153.10031 | 2008 ft | 209 kts | 126° |
| 2026-04-30 07:49 | -33.10323 | 153.11383 | 2029 ft | 209 kts | 126° |
| 2026-04-30 07:49 | -33.11245 | 153.12735 | 2011 ft | 210 kts | 126° |
| 2026-04-30 07:49 | -33.12168 | 153.14083 | 2023 ft | 210 kts | 126° |
| 2026-04-30 07:49 | -33.13101 | 153.15420 | 2020 ft | 209 kts | 126° |
| 2026-04-30 07:50 | -33.14036 | 153.16743 | 2010 ft | 208 kts | 126° |
| 2026-04-30 07:50 | -33.14962 | 153.18059 | 2014 ft | 206 kts | 127° |
| 2026-04-30 07:50 | -33.15868 | 153.19382 | 2027 ft | 206 kts | 126° |
| 2026-04-30 07:50 | -33.16778 | 153.20698 | 2009 ft | 204 kts | 126° |
| 2026-04-30 07:51 | -33.17695 | 153.22006 | 2032 ft | 207 kts | 126° |
| 2026-04-30 07:51 | -33.18625 | 153.23337 | 2037 ft | 211 kts | 127° |
| 2026-04-30 07:51 | -33.19563 | 153.24698 | 2029 ft | 212 kts | 126° |
| 2026-04-30 07:51 | -33.20493 | 153.26056 | 2017 ft | 210 kts | 126° |
| 2026-04-30 07:52 | -33.21419 | 153.27402 | 2012 ft | 209 kts | 127° |
| 2026-04-30 07:52 | -33.22319 | 153.28721 | 2028 ft | 207 kts | 126° |
| 2026-04-30 07:52 | -33.23232 | 153.30041 | 2027 ft | 206 kts | 126° |
| 2026-04-30 07:52 | -33.24144 | 153.31356 | 2015 ft | 205 kts | 126° |
| 2026-04-30 07:53 | -33.25052 | 153.32658 | 2017 ft | 204 kts | 127° |
| 2026-04-30 07:53 | -33.25967 | 153.33960 | 2026 ft | 206 kts | 131° |
| 2026-04-30 07:53 | -33.27222 | 153.34815 | 2035 ft | 217 kts | 166° |
| 2026-04-30 07:53 | -33.28749 | 153.34663 | 2024 ft | 228 kts | 200° |
| 2026-04-30 07:54 | -33.30004 | 153.33508 | 2032 ft | 232 kts | 234° |
| 2026-04-30 07:54 | -33.30597 | 153.31733 | 2043 ft | 231 kts | 260° |
| 2026-04-30 07:54 | -33.30830 | 153.29830 | 2016 ft | 231 kts | 264° |
| 2026-04-30 07:54 | -33.30871 | 153.27915 | 2002 ft | 230 kts | 284° |
| 2026-04-30 07:55 | -33.30178 | 153.26266 | 2039 ft | 220 kts | 319° |
| 2026-04-30 07:55 | -33.28928 | 153.25285 | 2045 ft | 215 kts | 338° |
| 2026-04-30 07:55 | -33.27528 | 153.24672 | 2041 ft | 215 kts | 345° |
| 2026-04-30 07:55 | -33.26105 | 153.24040 | 2020 ft | 219 kts | 342° |
| 2026-04-30 07:56 | -33.24687 | 153.23388 | 2036 ft | 219 kts | 343° |
| 2026-04-30 07:56 | -33.23255 | 153.22737 | 2013 ft | 220 kts | 343° |
| 2026-04-30 07:56 | -33.21846 | 153.22096 | 2022 ft | 219 kts | 343° |
| 2026-04-30 07:56 | -33.20421 | 153.21451 | 2025 ft | 219 kts | 343° |
| 2026-04-30 07:57 | -33.18999 | 153.20814 | 2013 ft | 218 kts | 343° |
| 2026-04-30 07:57 | -33.17585 | 153.20167 | 2016 ft | 216 kts | 343° |
| 2026-04-30 07:57 | -33.16182 | 153.19525 | 2016 ft | 216 kts | 343° |
| 2026-04-30 07:57 | -33.14790 | 153.18883 | 2028 ft | 214 kts | 343° |
| 2026-04-30 07:58 | -33.13404 | 153.18239 | 2018 ft | 213 kts | 343° |
| 2026-04-30 07:58 | -33.12009 | 153.17618 | 2029 ft | 216 kts | 344° |
| 2026-04-30 07:58 | -33.10596 | 153.16971 | 2038 ft | 220 kts | 343° |
| 2026-04-30 07:58 | -33.09163 | 153.16313 | 2036 ft | 220 kts | 343° |
| 2026-04-30 07:59 | -33.07732 | 153.15656 | 2038 ft | 221 kts | 343° |
| 2026-04-30 07:59 | -33.06301 | 153.14994 | 2034 ft | 220 kts | 342° |
| 2026-04-30 07:59 | -33.04872 | 153.14348 | 2024 ft | 217 kts | 343° |
| 2026-04-30 08:00 | -33.02063 | 153.13076 | 2027 ft | 215 kts | 343° |
| 2026-04-30 08:00 | -33.00630 | 153.12802 | 2006 ft | 205 kts | 14° |
| 2026-04-30 08:00 | -32.99392 | 153.13536 | 2028 ft | 203 kts | 48° |
| 2026-04-30 08:00 | -32.98767 | 153.15025 | 2034 ft | 205 kts | 83° |
| 2026-04-30 08:01 | -32.98807 | 153.16707 | 2032 ft | 205 kts | 97° |
| 2026-04-30 08:01 | -32.99005 | 153.18389 | 2027 ft | 204 kts | 94° |
| 2026-04-30 08:01 | -32.99117 | 153.20071 | 2024 ft | 204 kts | 94° |
| 2026-04-30 08:01 | -32.99529 | 153.21674 | 2017 ft | 206 kts | 124° |
| 2026-04-30 08:02 | -33.02146 | 153.22794 | 2043 ft | 220 kts | 186° |
| 2026-04-30 08:02 | -33.03668 | 153.22425 | 2040 ft | 226 kts | 186° |
| 2026-04-30 08:03 | -33.06765 | 153.21850 | 2017 ft | 227 kts | 185° |
| 2026-04-30 08:03 | -33.09890 | 153.21250 | 2020 ft | 227 kts | 186° |
| 2026-04-30 08:03 | -33.11447 | 153.20935 | 2015 ft | 227 kts | 186° |
| 2026-04-30 08:04 | -33.13003 | 153.20610 | 2027 ft | 227 kts | 186° |
| 2026-04-30 08:04 | -33.14553 | 153.20274 | 2017 ft | 226 kts | 186° |
| 2026-04-30 08:04 | -33.16097 | 153.19963 | 2016 ft | 224 kts | 185° |
| 2026-04-30 08:04 | -33.17629 | 153.19671 | 2010 ft | 222 kts | 185° |
| 2026-04-30 08:05 | -33.19151 | 153.19377 | 2013 ft | 221 kts | 185° |
| 2026-04-30 08:05 | -33.20644 | 153.19098 | 2023 ft | 219 kts | 185° |
| 2026-04-30 08:05 | -33.22154 | 153.18819 | 2011 ft | 221 kts | 185° |
| 2026-04-30 08:05 | -33.23678 | 153.18532 | 2039 ft | 223 kts | 185° |
| 2026-04-30 08:06 | -33.25228 | 153.18244 | 2038 ft | 226 kts | 185° |
| 2026-04-30 08:06 | -33.26785 | 153.17959 | 2031 ft | 227 kts | 185° |
| 2026-04-30 08:06 | -33.28344 | 153.17672 | 2035 ft | 226 kts | 185° |
| 2026-04-30 08:06 | -33.29902 | 153.17383 | 2013 ft | 226 kts | 185° |
| 2026-04-30 08:07 | -33.31448 | 153.17080 | 2024 ft | 225 kts | 188° |
| 2026-04-30 08:07 | -33.32852 | 153.16265 | 2025 ft | 229 kts | 221° |
| 2026-04-30 08:07 | -33.33675 | 153.14655 | 2016 ft | 230 kts | 257° |
| 2026-04-30 08:07 | -33.33638 | 153.12788 | 2038 ft | 225 kts | 291° |
| 2026-04-30 08:08 | -33.32798 | 153.11230 | 2048 ft | 224 kts | 315° |
| 2026-04-30 08:08 | -33.31610 | 153.10040 | 2037 ft | 223 kts | 328° |
| 2026-04-30 08:08 | -33.30376 | 153.08876 | 2030 ft | 228 kts | 326° |
| 2026-04-30 08:08 | -33.28972 | 153.08116 | 2021 ft | 219 kts | 358° |
| 2026-04-30 08:09 | -33.27528 | 153.08403 | 2026 ft | 208 kts | 32° |
| 2026-04-30 08:09 | -33.26359 | 153.09376 | 2032 ft | 204 kts | 42° |
| 2026-04-30 08:09 | -33.25275 | 153.10478 | 2030 ft | 205 kts | 42° |
| 2026-04-30 08:09 | -33.24180 | 153.11577 | 2031 ft | 207 kts | 40° |
| 2026-04-30 08:10 | -33.23056 | 153.12659 | 2032 ft | 208 kts | 40° |
| 2026-04-30 08:10 | -33.21919 | 153.13735 | 2040 ft | 208 kts | 40° |
| 2026-04-30 08:10 | -33.20782 | 153.14799 | 2017 ft | 207 kts | 40° |
| 2026-04-30 08:10 | -33.19665 | 153.15854 | 2017 ft | 202 kts | 41° |
| 2026-04-30 08:11 | -33.18574 | 153.16900 | 2009 ft | 201 kts | 41° |
| 2026-04-30 08:11 | -33.17505 | 153.17929 | 2025 ft | 200 kts | 41° |
| 2026-04-30 08:11 | -33.16416 | 153.18970 | 2034 ft | 202 kts | 41° |
| 2026-04-30 08:11 | -33.15314 | 153.20034 | 2042 ft | 205 kts | 41° |
| 2026-04-30 08:12 | -33.14207 | 153.21098 | 2027 ft | 205 kts | 41° |
| 2026-04-30 08:12 | -33.13094 | 153.22163 | 2027 ft | 205 kts | 41° |
| 2026-04-30 08:12 | -33.11980 | 153.23222 | 2026 ft | 205 kts | 40° |
| 2026-04-30 08:12 | -33.10868 | 153.24289 | 2031 ft | 205 kts | 41° |
| 2026-04-30 08:13 | -33.09755 | 153.25366 | 2034 ft | 206 kts | 41° |
| 2026-04-30 08:13 | -33.08639 | 153.26446 | 2033 ft | 207 kts | 41° |
| 2026-04-30 08:13 | -33.07523 | 153.27529 | 2022 ft | 207 kts | 41° |
| 2026-04-30 08:13 | -33.06408 | 153.28612 | 2029 ft | 207 kts | 41° |
| 2026-04-30 08:14 | -33.05295 | 153.29696 | 2025 ft | 207 kts | 41° |
| 2026-04-30 08:14 | -33.04179 | 153.30777 | 2014 ft | 206 kts | 41° |
| 2026-04-30 08:14 | -33.03067 | 153.31849 | 2026 ft | 205 kts | 41° |
| 2026-04-30 08:14 | -33.01955 | 153.32911 | 2032 ft | 205 kts | 41° |
| 2026-04-30 08:15 | -33.00852 | 153.33974 | 2035 ft | 205 kts | 41° |
| 2026-04-30 08:15 | -32.99742 | 153.35049 | 2026 ft | 204 kts | 41° |
| 2026-04-30 08:15 | -32.98658 | 153.36103 | 2014 ft | 203 kts | 41° |
| 2026-04-30 08:15 | -32.97567 | 153.37163 | 2039 ft | 202 kts | 41° |
| 2026-04-30 08:16 | -32.96480 | 153.38220 | 2034 ft | 202 kts | 41° |
| 2026-04-30 08:16 | -32.95393 | 153.39277 | 2034 ft | 202 kts | 41° |
| 2026-04-30 08:16 | -32.94303 | 153.40331 | 2015 ft | 202 kts | 41° |
| 2026-04-30 08:16 | -32.93208 | 153.41380 | 2031 ft | 203 kts | 41° |
| 2026-04-30 08:17 | -32.92106 | 153.42434 | 2035 ft | 204 kts | 41° |
| 2026-04-30 08:17 | -32.90993 | 153.43490 | 2038 ft | 205 kts | 41° |
| 2026-04-30 08:17 | -32.89863 | 153.44564 | 2044 ft | 216 kts | 41° |
| 2026-04-30 08:17 | -32.88605 | 153.45775 | 2057 ft | 242 kts | 41° |
| 2026-04-30 08:18 | -32.87289 | 153.47047 | 2032 ft | 245 kts | 41° |
| 2026-04-30 08:18 | -32.85966 | 153.48322 | 2035 ft | 244 kts | 41° |
| 2026-04-30 08:18 | -32.84665 | 153.49580 | 2025 ft | 243 kts | 41° |
| 2026-04-30 08:18 | -32.83356 | 153.50845 | 2032 ft | 242 kts | 41° |
| 2026-04-30 08:19 | -32.82051 | 153.52108 | 2025 ft | 241 kts | 41° |
| 2026-04-30 08:19 | -32.80749 | 153.53363 | 2019 ft | 240 kts | 41° |
| 2026-04-30 08:19 | -32.79447 | 153.54618 | 2018 ft | 242 kts | 41° |
| 2026-04-30 08:19 | -32.78132 | 153.55884 | 2034 ft | 244 kts | 41° |
| 2026-04-30 08:20 | -32.76810 | 153.57155 | 2033 ft | 244 kts | 41° |
| 2026-04-30 08:20 | -32.75752 | 153.58673 | 2026 ft | 239 kts | 68° |
| 2026-04-30 08:20 | -32.75502 | 153.60603 | 2021 ft | 241 kts | 97° |
| 2026-04-30 08:20 | -32.76147 | 153.62447 | 2038 ft | 247 kts | 126° |
| 2026-04-30 08:21 | -32.77527 | 153.63681 | 2043 ft | 255 kts | 155° |
| 2026-04-30 08:21 | -32.79301 | 153.63966 | 2015 ft | 266 kts | 184° |
| 2026-04-30 08:21 | -32.81042 | 153.63188 | 2035 ft | 272 kts | 212° |
| 2026-04-30 08:21 | -32.82536 | 153.61790 | 2032 ft | 275 kts | 217° |
| 2026-04-30 08:22 | -32.84012 | 153.60356 | 2041 ft | 273 kts | 217° |
| 2026-04-30 08:22 | -32.85480 | 153.58936 | 2031 ft | 271 kts | 217° |
| 2026-04-30 08:22 | -32.86939 | 153.57521 | 2025 ft | 270 kts | 217° |
| 2026-04-30 08:22 | -32.88399 | 153.56107 | 2010 ft | 271 kts | 217° |
| 2026-04-30 08:23 | -32.89856 | 153.54696 | 2031 ft | 269 kts | 217° |
| 2026-04-30 08:23 | -32.91289 | 153.53302 | 2014 ft | 269 kts | 217° |
| 2026-04-30 08:23 | -32.92727 | 153.51905 | 2020 ft | 268 kts | 217° |
| 2026-04-30 08:23 | -32.94178 | 153.50496 | 2014 ft | 267 kts | 217° |
| 2026-04-30 08:24 | -32.95617 | 153.49102 | 2035 ft | 266 kts | 217° |
| 2026-04-30 08:24 | -32.97056 | 153.47710 | 2033 ft | 267 kts | 217° |
| 2026-04-30 08:24 | -32.98500 | 153.46313 | 2026 ft | 268 kts | 217° |
| 2026-04-30 08:24 | -32.99953 | 153.44906 | 2034 ft | 269 kts | 217° |
| 2026-04-30 08:25 | -33.01414 | 153.43487 | 2034 ft | 272 kts | 217° |
| 2026-04-30 08:25 | -33.02881 | 153.42071 | 2029 ft | 271 kts | 217° |
| 2026-04-30 08:25 | -33.04352 | 153.40661 | 2044 ft | 273 kts | 217° |
| 2026-04-30 08:25 | -33.05841 | 153.39230 | 2036 ft | 275 kts | 217° |
| 2026-04-30 08:26 | -33.07321 | 153.37800 | 2038 ft | 273 kts | 217° |
| 2026-04-30 08:26 | -33.08774 | 153.36394 | 2030 ft | 271 kts | 217° |
| 2026-04-30 08:26 | -33.10233 | 153.34988 | 2026 ft | 269 kts | 217° |
| 2026-04-30 08:26 | -33.11685 | 153.33592 | 2019 ft | 268 kts | 217° |
| 2026-04-30 08:27 | -33.13136 | 153.32193 | 2023 ft | 267 kts | 217° |
| 2026-04-30 08:27 | -33.14583 | 153.30800 | 2035 ft | 270 kts | 217° |
| 2026-04-30 08:27 | -33.16051 | 153.29381 | 2039 ft | 272 kts | 217° |
| 2026-04-30 08:27 | -33.17519 | 153.27950 | 2033 ft | 271 kts | 217° |
| 2026-04-30 08:28 | -33.18981 | 153.26524 | 2020 ft | 270 kts | 217° |
| 2026-04-30 08:28 | -33.20430 | 153.25106 | 2029 ft | 269 kts | 220° |
| 2026-04-30 08:28 | -33.21483 | 153.23289 | 1998 ft | 270 kts | 254° |
| 2026-04-30 08:28 | -33.21527 | 153.21109 | 1959 ft | 260 kts | 282° |
| 2026-04-30 08:29 | -33.21203 | 153.18986 | 1668 ft | 261 kts | 282° |
| 2026-04-30 08:29 | -33.20886 | 153.16853 | 1360 ft | 261 kts | 282° |
| 2026-04-30 08:29 | -33.20594 | 153.14727 | 1186 ft | 256 kts | 282° |
| 2026-04-30 08:29 | -33.20338 | 153.12696 | 1501 ft | 238 kts | 280° |
| 2026-04-30 08:30 | -33.20097 | 153.10685 | 2055 ft | 258 kts | 279° |
| 2026-04-30 08:30 | -33.19840 | 153.08459 | 2593 ft | 276 kts | 279° |
| 2026-04-30 08:30 | -33.19592 | 153.06214 | 3090 ft | 276 kts | 279° |
| 2026-04-30 08:30 | -33.19352 | 153.03959 | 3583 ft | 272 kts | 278° |
| 2026-04-30 08:31 | -33.19117 | 153.01706 | 4076 ft | 274 kts | 278° |
| 2026-04-30 08:31 | -33.18883 | 152.99432 | 4496 ft | 278 kts | 278° |
| 2026-04-30 08:31 | -33.18651 | 152.97142 | 4512 ft | 279 kts | 279° |
| 2026-04-30 08:31 | -33.18418 | 152.94850 | 4526 ft | 279 kts | 279° |
| 2026-04-30 08:32 | -33.18185 | 152.92540 | 4524 ft | 278 kts | 278° |
| 2026-04-30 08:32 | -33.17956 | 152.90259 | 4534 ft | 276 kts | 278° |
| 2026-04-30 08:32 | -33.17728 | 152.87991 | 4516 ft | 275 kts | 278° |
| 2026-04-30 08:32 | -33.17501 | 152.85732 | 4511 ft | 274 kts | 278° |
| 2026-04-30 08:33 | -33.17273 | 152.83464 | 4516 ft | 278 kts | 278° |
| 2026-04-30 08:33 | -33.17041 | 152.81163 | 4527 ft | 281 kts | 278° |
| 2026-04-30 08:33 | -33.16806 | 152.78842 | 4526 ft | 282 kts | 278° |
| 2026-04-30 08:33 | -33.16571 | 152.76513 | 4527 ft | 282 kts | 278° |
| 2026-04-30 08:34 | -33.16336 | 152.74189 | 4524 ft | 282 kts | 278° |
| 2026-04-30 08:34 | -33.16102 | 152.71870 | 4518 ft | 281 kts | 278° |
| 2026-04-30 08:34 | -33.15869 | 152.69567 | 4509 ft | 277 kts | 278° |
| 2026-04-30 08:34 | -33.15641 | 152.67321 | 4500 ft | 270 kts | 278° |
| 2026-04-30 08:35 | -33.15417 | 152.65113 | 4488 ft | 267 kts | 278° |
| 2026-04-30 08:35 | -33.15269 | 152.63660 | 4492 ft | 266 kts | 278° |
| 2026-04-30 08:35 | -33.14966 | 152.60698 | 4511 ft | 271 kts | 278° |
| 2026-04-30 08:35 | -33.14815 | 152.59227 | 4511 ft | 269 kts | 278° |
| 2026-04-30 08:36 | -33.14512 | 152.56272 | 4503 ft | 267 kts | 278° |
| 2026-04-30 08:36 | -33.14363 | 152.54821 | 4497 ft | 266 kts | 278° |
| 2026-04-30 08:36 | -33.14139 | 152.52639 | 4496 ft | 265 kts | 278° |
| 2026-04-30 08:36 | -33.13913 | 152.50446 | 4507 ft | 267 kts | 277° |
| 2026-04-30 08:37 | -33.13685 | 152.48238 | 4502 ft | 268 kts | 277° |
| 2026-04-30 08:37 | -33.13458 | 152.46039 | 4501 ft | 267 kts | 277° |
| 2026-04-30 08:37 | -33.13231 | 152.43846 | 4500 ft | 265 kts | 277° |
| 2026-04-30 08:37 | -33.13005 | 152.41663 | 4498 ft | 265 kts | 277° |
| 2026-04-30 08:38 | -33.12779 | 152.39486 | 4504 ft | 264 kts | 277° |
| 2026-04-30 08:38 | -33.12555 | 152.37329 | 4497 ft | 268 kts | 278° |
| 2026-04-30 08:38 | -33.12324 | 152.35123 | 4515 ft | 269 kts | 278° |
| 2026-04-30 08:38 | -33.12090 | 152.32879 | 4504 ft | 273 kts | 278° |
| 2026-04-30 08:39 | -33.11856 | 152.30642 | 4500 ft | 271 kts | 278° |
| 2026-04-30 08:39 | -33.11624 | 152.28426 | 4499 ft | 269 kts | 278° |
| 2026-04-30 08:39 | -33.11394 | 152.26224 | 4501 ft | 267 kts | 278° |
| 2026-04-30 08:39 | -33.11163 | 152.24024 | 4494 ft | 267 kts | 278° |
| 2026-04-30 08:40 | -33.10928 | 152.21798 | 4505 ft | 272 kts | 278° |
| 2026-04-30 08:40 | -33.10690 | 152.19552 | 4508 ft | 272 kts | 278° |
| 2026-04-30 08:40 | -33.10145 | 152.17426 | 4477 ft | 268 kts | 306° |
| 2026-04-30 08:40 | -33.08829 | 152.15917 | 4515 ft | 262 kts | 330° |
| 2026-04-30 08:41 | -33.07228 | 152.14902 | 4522 ft | 260 kts | 338° |
| 2026-04-30 08:41 | -33.05581 | 152.14015 | 4515 ft | 259 kts | 339° |
| 2026-04-30 08:41 | -33.03936 | 152.13140 | 4514 ft | 259 kts | 338° |
| 2026-04-30 08:41 | -33.02295 | 152.12250 | 4516 ft | 259 kts | 338° |
| 2026-04-30 08:42 | -33.00677 | 152.11359 | 4361 ft | 261 kts | 338° |
| 2026-04-30 08:42 | -32.99031 | 152.10445 | 4102 ft | 260 kts | 338° |
| 2026-04-30 08:42 | -32.97404 | 152.09538 | 3863 ft | 253 kts | 338° |
| 2026-04-30 08:42 | -32.95884 | 152.08605 | 3729 ft | 241 kts | 325° |
| 2026-04-30 08:43 | -32.94810 | 152.07138 | 3636 ft | 231 kts | 308° |
| 2026-04-30 08:43 | -32.93877 | 152.05627 | 3564 ft | 220 kts | 310° |
| 2026-04-30 08:43 | -32.92991 | 152.04227 | 3462 ft | 204 kts | 310° |
| 2026-04-30 08:43 | -32.92169 | 152.02929 | 3363 ft | 189 kts | 310° |
| 2026-04-30 08:44 | -32.91374 | 152.01676 | 3191 ft | 187 kts | 310° |
| 2026-04-30 08:44 | -32.90621 | 152.00489 | 3077 ft | 172 kts | 310° |
| 2026-04-30 08:44 | -32.89922 | 151.99378 | 2908 ft | 164 kts | 310° |
| 2026-04-30 08:44 | -32.89235 | 151.98273 | 2687 ft | 166 kts | 310° |
| 2026-04-30 08:45 | -32.88548 | 151.97177 | 2481 ft | 164 kts | 311° |
| 2026-04-30 08:45 | -32.87865 | 151.96097 | 2273 ft | 163 kts | 310° |
| 2026-04-30 08:45 | -32.87181 | 151.95011 | 2063 ft | 164 kts | 312° |
| 2026-04-30 08:45 | -32.86497 | 151.93928 | 1861 ft | 164 kts | 311° |
| 2026-04-30 08:46 | -32.85828 | 151.92848 | 1668 ft | 164 kts | 311° |
| 2026-04-30 08:46 | -32.85145 | 151.91756 | 1432 ft | 164 kts | 311° |
| 2026-04-30 08:46 | -32.84465 | 151.90675 | 1253 ft | 162 kts | 311° |
| 2026-04-30 08:46 | -32.83785 | 151.89606 | 1062 ft | 161 kts | 311° |
| 2026-04-30 08:47 | -32.83117 | 151.88543 | 851 ft | 161 kts | 310° |
| 2026-04-30 08:47 | -32.82445 | 151.87489 | 655 ft | 158 kts | 312° |
| 2026-04-30 08:47 | -32.81746 | 151.86490 | 449 ft | 156 kts | 313° |
| 2026-04-30 08:47 | -32.81052 | 151.85521 | 248 ft | 154 kts | 312° |
| 2026-04-30 08:48 | -32.80355 | 151.84553 | 35 ft | 154 kts | 311° |
| 2026-04-30 08:48 | -32.79722 | 151.83674 | 31 ft | 113 kts | 310° |
| 2026-04-30 08:48 | -32.79332 | 151.83132 | 31 ft | 51 kts | 310° |
| 2026-04-30 08:48 | -32.79216 | 151.83007 | 32 ft | 14 kts | 6° |
| 2026-04-30 08:49 | -32.79159 | 151.83055 | 32 ft | 0 kts | 39° |